Khasan, Russia
Current Conditions -  °F | °C
As of 1:30 PM on Sunday 25 Jan 2015 (Local Time) from UHWW Reporting Station
Haze Haze  
Wind Chill: 19°   Ceiling: 3000
Heat Index: 19°   Visibility: 3mi
Dew Point:   Wind: 0mph
Humidity: 54%   Direction: NA
Pressure: 30.33"   Gusts: NA
Location:  42.42°N, 130.65°E
Report Text: UHWW 250330Z 00000MPS 5000 BR OVC030 M07/M15 Q1027 NOSIG RMKQFE769/1026 25CLRD60
Loading
Personal Weather Stations






























Interactive Weather Map New forecast layout! Learn more

10-Day Weather Forecast

Advertisements
Track Severe Weather on mobile